Wooster, OH

6:37 PM EDT on August 22, 2014 (GMT -0400)
Bella Rosa | Change Station
CLOSE
Current Station
Personal Weather Station
Location: Wadsworth, OH
Elevation: 1053 ft
Nearby Weather Stations

Elev 1053 ft 40.99 °N, 81.73 °W | Updated 12 minutes ago

Overcast
Overcast
83.5 °F
Feels Like 90 °F
N
2.7
Wind Variable Wind from NNE

Today
High -- | Low -- °F
--% Chance of Precip.
Yesterday
High -- | Low -- °F
Precip. -- in
6:44 AM 8:15 PM
Waning Crescent, 6% visible
Pressure 29.96 in
Visibility 10.0 miles
Clouds Mostly Cloudy 2700 ft
Mostly Cloudy 3300 ft
Overcast 4200 ft
Heat Index 90 °F
Dew Point 74 °F
Humidity 72%
Rainfall 0.00 in
Snow Depth Not available.
UV 1 out of 12
Pollen 7.60 out of 12
Air Quality Not available.
Flu Activity Not available.
SPECI KBJJ 222204Z AUTO 03004KT 10SM BKN027 BKN033 OVC042 27/22 A2996 RMK AO2 T02720217 TSNO PNO

More Conditions Fewer Conditions

Pressure 29.96 in
Visibility 10.0 miles
Clouds Mostly Cloudy 2700 ft
Mostly Cloudy 3300 ft
Overcast 4200 ft
Heat Index 90 °F
Dew Point 74 °F
Humidity 72%
Rainfall 0.00 in
Snow Depth Not available.
UV 1 out of 12
Pollen 7.60 out of 12
Air Quality Not available.
Flu Activity Not available.
SPECI KBJJ 222204Z AUTO 03004KT 10SM BKN027 BKN033 OVC042 27/22 A2996 RMK AO2 T02720217 TSNO PNO

More Conditions Fewer Conditions

Nowcast | as of 6:10 PM EDT on August 22, 2014

Scattered showers and thunderstorms will decrease during the evening. They are moving from the northwest at 15 mph. Some brief heavy rain could occur with some of the storms...causing some ponding of water on roads.

×

10-Day Weather Forecast

Almanac

Astronomy

Aug. 22, 2014 Rise Set
Actual Time 6:44 AM EDT 8:15 PM EDT
Civil Twilight 6:16 AM EDT 8:44 PM EDT
Nautical Twilight 5:41 AM EDT 9:19 PM EDT
Astronomical Twilight 5:04 AM EDT 9:55 PM EDT
Moon 4:05 AM EDT 6:23 PM EDT
Length of Visible Light 14h 28m
Length of Day
13h 30m
Tomorrow will be 2m 31s shorter.
Waning Crescent, 6% of the Moon is Illuminated
Today
Waning Crescent
Aug 25
New
Sep 2
First Quarter
Sep 8
Full
Sep 15
Last Quarter

Today's Extremes

State Highs State Lows

Community

WunderPhotos

Upload Photos

1,746,274 photos uploaded!

WunderBlogs® & News

By Dr. Jeff Masters
Director of Meteorology, Weather Underground
By Kari Strenfel
Meteorologist, Weather Underground
By Christopher C. Burt
Weather Historian, Weather Underground
August 22, 2014
August 22, 2014
August 22, 2014

Nearby

Snow Depth

Station Depth Elevation
No new snow has been reported.

Earthquake Activity

City Distance Mag. Time & Date
No recent earthquake activity has been reported nearby.
Minimum magnitude displayed is 2.5.

Coastal Water Temperatures

Place Temperature
No Stations Reporting

Nearby Weather Stations